sensor_id;sensor_type;location;lat;lon;timestamp;P1;durP1;ratioP1;P2;durP2;ratioP2
43694;SDS011;29300;43.560;1.294;2022-12-07T00:01:09;28.40;;;18.52;;
43694;SDS011;29300;43.560;1.294;2022-12-07T00:03:37;27.67;;;18.17;;
43694;SDS011;29300;43.560;1.294;2022-12-07T00:06:04;28.20;;;18.95;;
43694;SDS011;29300;43.560;1.294;2022-12-07T00:08:31;26.70;;;18.75;;
43694;SDS011;29300;43.560;1.294;2022-12-07T00:11:08;25.80;;;17.95;;
43694;SDS011;29300;43.560;1.294;2022-12-07T00:13:38;24.75;;;17.30;;
43694;SDS011;29300;43.560;1.294;2022-12-07T00:16:06;27.23;;;18.00;;
43694;SDS011;29300;43.560;1.294;2022-12-07T00:18:37;26.38;;;18.05;;
43694;SDS011;29300;43.560;1.294;2022-12-07T00:21:04;28.40;;;18.35;;
43694;SDS011;29300;43.560;1.294;2022-12-07T00:23:32;28.92;;;19.40;;
43694;SDS011;29300;43.560;1.294;2022-12-07T00:26:05;27.67;;;17.90;;
43694;SDS011;29300;43.560;1.294;2022-12-07T00:28:32;28.15;;;18.17;;
43694;SDS011;29300;43.560;1.294;2022-12-07T00:31:08;26.73;;;18.35;;
43694;SDS011;29300;43.560;1.294;2022-12-07T00:33:36;29.42;;;19.20;;
43694;SDS011;29300;43.560;1.294;2022-12-07T00:36:04;28.60;;;18.35;;
43694;SDS011;29300;43.560;1.294;2022-12-07T00:38:33;28.60;;;18.83;;
43694;SDS011;29300;43.560;1.294;2022-12-07T00:41:08;30.23;;;18.95;;
43694;SDS011;29300;43.560;1.294;2022-12-07T00:43:43;32.38;;;19.23;;
43694;SDS011;29300;43.560;1.294;2022-12-07T00:46:10;28.17;;;19.35;;
43694;SDS011;29300;43.560;1.294;2022-12-07T00:48:36;30.98;;;19.90;;
43694;SDS011;29300;43.560;1.294;2022-12-07T00:51:02;32.05;;;19.83;;
43694;SDS011;29300;43.560;1.294;2022-12-07T00:53:29;29.40;;;18.13;;
43694;SDS011;29300;43.560;1.294;2022-12-07T00:55:55;31.08;;;19.75;;
43694;SDS011;29300;43.560;1.294;2022-12-07T00:58:21;32.17;;;19.35;;
43694;SDS011;29300;43.560;1.294;2022-12-07T01:00:48;27.13;;;19.10;;
43694;SDS011;29300;43.560;1.294;2022-12-07T01:03:14;28.13;;;17.58;;
43694;SDS011;29300;43.560;1.294;2022-12-07T01:05:48;30.83;;;19.08;;
43694;SDS011;29300;43.560;1.294;2022-12-07T01:08:18;29.85;;;19.02;;
43694;SDS011;29300;43.560;1.294;2022-12-07T01:10:44;29.63;;;18.75;;
43694;SDS011;29300;43.560;1.294;2022-12-07T01:13:14;30.38;;;18.92;;
43694;SDS011;29300;43.560;1.294;2022-12-07T01:15:43;26.83;;;18.17;;
43694;SDS011;29300;43.560;1.294;2022-12-07T01:18:10;28.42;;;17.88;;
43694;SDS011;29300;43.560;1.294;2022-12-07T01:20:36;27.52;;;17.20;;
43694;SDS011;29300;43.560;1.294;2022-12-07T01:23:02;29.17;;;19.88;;
43694;SDS011;29300;43.560;1.294;2022-12-07T01:25:28;28.63;;;18.27;;
43694;SDS011;29300;43.560;1.294;2022-12-07T01:27:54;30.30;;;19.65;;
43694;SDS011;29300;43.560;1.294;2022-12-07T01:30:19;30.38;;;18.98;;
43694;SDS011;29300;43.560;1.294;2022-12-07T01:32:45;28.95;;;18.30;;
43694;SDS011;29300;43.560;1.294;2022-12-07T01:35:11;27.52;;;18.23;;
43694;SDS011;29300;43.560;1.294;2022-12-07T01:37:37;26.73;;;17.23;;
43694;SDS011;29300;43.560;1.294;2022-12-07T01:40:04;25.60;;;16.73;;
43694;SDS011;29300;43.560;1.294;2022-12-07T01:42:31;26.08;;;17.98;;
43694;SDS011;29300;43.560;1.294;2022-12-07T01:48:00;27.05;;;16.58;;
43694;SDS011;29300;43.560;1.294;2022-12-07T01:50:27;24.27;;;16.70;;
43694;SDS011;29300;43.560;1.294;2022-12-07T01:52:56;27.38;;;17.23;;
43694;SDS011;29300;43.560;1.294;2022-12-07T01:55:24;27.10;;;16.63;;
43694;SDS011;29300;43.560;1.294;2022-12-07T01:57:52;24.98;;;16.90;;
43694;SDS011;29300;43.560;1.294;2022-12-07T02:00:19;25.15;;;16.92;;
43694;SDS011;29300;43.560;1.294;2022-12-07T02:02:51;26.08;;;16.75;;
43694;SDS011;29300;43.560;1.294;2022-12-07T02:05:17;25.85;;;16.30;;
43694;SDS011;29300;43.560;1.294;2022-12-07T02:07:44;27.30;;;15.93;;
43694;SDS011;29300;43.560;1.294;2022-12-07T02:10:16;28.50;;;17.80;;
43694;SDS011;29300;43.560;1.294;2022-12-07T02:12:51;26.70;;;16.85;;
43694;SDS011;29300;43.560;1.294;2022-12-07T02:15:20;27.48;;;16.77;;
43694;SDS011;29300;43.560;1.294;2022-12-07T02:31:30;23.20;;;15.90;;
43694;SDS011;29300;43.560;1.294;2022-12-07T02:37:03;24.98;;;15.18;;
43694;SDS011;29300;43.560;1.294;2022-12-07T02:39:44;27.43;;;16.10;;
43694;SDS011;29300;43.560;1.294;2022-12-07T02:42:23;23.55;;;15.88;;
43694;SDS011;29300;43.560;1.294;2022-12-07T02:44:55;25.35;;;15.35;;
43694;SDS011;29300;43.560;1.294;2022-12-07T02:47:22;21.27;;;14.52;;
43694;SDS011;29300;43.560;1.294;2022-12-07T02:49:49;23.63;;;15.20;;
43694;SDS011;29300;43.560;1.294;2022-12-07T02:52:16;23.45;;;14.98;;
43694;SDS011;29300;43.560;1.294;2022-12-07T02:54:41;21.33;;;14.43;;
43694;SDS011;29300;43.560;1.294;2022-12-07T03:00:06;22.83;;;13.93;;
43694;SDS011;29300;43.560;1.294;2022-12-07T03:02:43;23.88;;;14.57;;
43694;SDS011;29300;43.560;1.294;2022-12-07T03:08:05;22.58;;;14.05;;
43694;SDS011;29300;43.560;1.294;2022-12-07T03:16:05;20.08;;;13.05;;
43694;SDS011;29300;43.560;1.294;2022-12-07T03:21:17;17.63;;;12.07;;
43694;SDS011;29300;43.560;1.294;2022-12-07T03:23:48;17.40;;;12.43;;
43694;SDS011;29300;43.560;1.294;2022-12-07T03:26:19;18.58;;;12.15;;
43694;SDS011;29300;43.560;1.294;2022-12-07T03:28:51;20.33;;;12.55;;
43694;SDS011;29300;43.560;1.294;2022-12-07T03:31:24;20.63;;;12.43;;
43694;SDS011;29300;43.560;1.294;2022-12-07T03:33:57;18.15;;;11.65;;
43694;SDS011;29300;43.560;1.294;2022-12-07T03:36:40;16.92;;;11.70;;
43694;SDS011;29300;43.560;1.294;2022-12-07T03:39:17;19.15;;;12.23;;
43694;SDS011;29300;43.560;1.294;2022-12-07T03:42:06;15.20;;;12.15;;
43694;SDS011;29300;43.560;1.294;2022-12-07T03:44:34;15.73;;;11.45;;
43694;SDS011;29300;43.560;1.294;2022-12-07T03:47:02;15.10;;;10.50;;
43694;SDS011;29300;43.560;1.294;2022-12-07T03:50:00;18.92;;;11.70;;
43694;SDS011;29300;43.560;1.294;2022-12-07T03:55:31;16.50;;;11.10;;
43694;SDS011;29300;43.560;1.294;2022-12-07T03:58:07;15.48;;;10.95;;
43694;SDS011;29300;43.560;1.294;2022-12-07T04:00:40;19.20;;;11.75;;
43694;SDS011;29300;43.560;1.294;2022-12-07T04:03:07;18.25;;;12.13;;
43694;SDS011;29300;43.560;1.294;2022-12-07T04:05:33;17.33;;;12.05;;
43694;SDS011;29300;43.560;1.294;2022-12-07T04:08:00;17.50;;;11.85;;
43694;SDS011;29300;43.560;1.294;2022-12-07T04:10:25;16.73;;;11.30;;
43694;SDS011;29300;43.560;1.294;2022-12-07T04:12:51;17.15;;;11.35;;
43694;SDS011;29300;43.560;1.294;2022-12-07T04:15:17;19.27;;;12.23;;
43694;SDS011;29300;43.560;1.294;2022-12-07T04:17:43;17.58;;;11.68;;
43694;SDS011;29300;43.560;1.294;2022-12-07T04:20:09;17.27;;;11.55;;
43694;SDS011;29300;43.560;1.294;2022-12-07T04:22:35;15.27;;;10.38;;
43694;SDS011;29300;43.560;1.294;2022-12-07T04:25:01;16.50;;;11.27;;
43694;SDS011;29300;43.560;1.294;2022-12-07T04:27:26;17.35;;;11.45;;
43694;SDS011;29300;43.560;1.294;2022-12-07T04:29:52;14.90;;;9.93;;
43694;SDS011;29300;43.560;1.294;2022-12-07T04:32:18;18.25;;;11.60;;
43694;SDS011;29300;43.560;1.294;2022-12-07T04:34:44;15.00;;;10.32;;
43694;SDS011;29300;43.560;1.294;2022-12-07T04:37:09;15.68;;;11.05;;
43694;SDS011;29300;43.560;1.294;2022-12-07T04:39:35;16.58;;;12.05;;
43694;SDS011;29300;43.560;1.294;2022-12-07T04:42:01;17.48;;;11.65;;
43694;SDS011;29300;43.560;1.294;2022-12-07T04:44:27;15.68;;;10.50;;
43694;SDS011;29300;43.560;1.294;2022-12-07T04:46:54;17.17;;;10.50;;
43694;SDS011;29300;43.560;1.294;2022-12-07T04:49:21;16.80;;;11.48;;
43694;SDS011;29300;43.560;1.294;2022-12-07T04:51:46;16.92;;;10.45;;
43694;SDS011;29300;43.560;1.294;2022-12-07T04:54:13;17.73;;;10.32;;
43694;SDS011;29300;43.560;1.294;2022-12-07T04:56:40;13.98;;;9.93;;
43694;SDS011;29300;43.560;1.294;2022-12-07T04:59:06;17.55;;;11.20;;
43694;SDS011;29300;43.560;1.294;2022-12-07T05:01:32;13.07;;;9.32;;
43694;SDS011;29300;43.560;1.294;2022-12-07T05:03:59;15.27;;;9.77;;
43694;SDS011;29300;43.560;1.294;2022-12-07T05:06:25;14.88;;;9.95;;
43694;SDS011;29300;43.560;1.294;2022-12-07T05:08:50;15.18;;;10.63;;
43694;SDS011;29300;43.560;1.294;2022-12-07T05:11:16;14.57;;;10.15;;
43694;SDS011;29300;43.560;1.294;2022-12-07T05:14:01;12.13;;;8.75;;
43694;SDS011;29300;43.560;1.294;2022-12-07T05:16:28;14.52;;;9.57;;
43694;SDS011;29300;43.560;1.294;2022-12-07T05:18:54;13.63;;;9.80;;
43694;SDS011;29300;43.560;1.294;2022-12-07T05:21:20;11.98;;;8.95;;
43694;SDS011;29300;43.560;1.294;2022-12-07T05:23:46;15.13;;;10.05;;
43694;SDS011;29300;43.560;1.294;2022-12-07T05:26:11;13.50;;;9.68;;
43694;SDS011;29300;43.560;1.294;2022-12-07T05:28:37;14.35;;;9.25;;
43694;SDS011;29300;43.560;1.294;2022-12-07T05:31:03;14.27;;;9.45;;
43694;SDS011;29300;43.560;1.294;2022-12-07T05:33:29;12.27;;;8.95;;
43694;SDS011;29300;43.560;1.294;2022-12-07T05:35:54;11.80;;;8.43;;
43694;SDS011;29300;43.560;1.294;2022-12-07T05:38:20;11.55;;;8.57;;
43694;SDS011;29300;43.560;1.294;2022-12-07T05:40:46;11.02;;;8.30;;
43694;SDS011;29300;43.560;1.294;2022-12-07T05:43:13;13.27;;;8.88;;
43694;SDS011;29300;43.560;1.294;2022-12-07T05:45:39;12.80;;;9.15;;
43694;SDS011;29300;43.560;1.294;2022-12-07T05:48:04;12.73;;;9.52;;
43694;SDS011;29300;43.560;1.294;2022-12-07T05:50:30;11.90;;;8.90;;
43694;SDS011;29300;43.560;1.294;2022-12-07T05:52:56;13.93;;;9.38;;
43694;SDS011;29300;43.560;1.294;2022-12-07T05:55:22;15.05;;;9.35;;
43694;SDS011;29300;43.560;1.294;2022-12-07T05:57:47;11.35;;;8.48;;
43694;SDS011;29300;43.560;1.294;2022-12-07T06:00:32;11.48;;;8.57;;
43694;SDS011;29300;43.560;1.294;2022-12-07T06:02:57;13.05;;;8.82;;
43694;SDS011;29300;43.560;1.294;2022-12-07T06:05:23;12.18;;;9.02;;
43694;SDS011;29300;43.560;1.294;2022-12-07T06:07:49;14.07;;;9.15;;
43694;SDS011;29300;43.560;1.294;2022-12-07T06:10:15;11.70;;;8.27;;
43694;SDS011;29300;43.560;1.294;2022-12-07T06:12:40;11.25;;;8.20;;
43694;SDS011;29300;43.560;1.294;2022-12-07T06:15:08;11.80;;;8.50;;
43694;SDS011;29300;43.560;1.294;2022-12-07T06:17:35;11.00;;;8.13;;
43694;SDS011;29300;43.560;1.294;2022-12-07T06:20:01;11.68;;;8.30;;
43694;SDS011;29300;43.560;1.294;2022-12-07T06:22:26;11.45;;;7.82;;
43694;SDS011;29300;43.560;1.294;2022-12-07T06:24:52;12.30;;;8.73;;
43694;SDS011;29300;43.560;1.294;2022-12-07T06:27:18;11.02;;;7.88;;
43694;SDS011;29300;43.560;1.294;2022-12-07T06:29:43;12.05;;;8.88;;
43694;SDS011;29300;43.560;1.294;2022-12-07T06:32:09;15.23;;;10.20;;
43694;SDS011;29300;43.560;1.294;2022-12-07T06:34:35;13.77;;;8.98;;
43694;SDS011;29300;43.560;1.294;2022-12-07T06:37:01;13.13;;;8.43;;
43694;SDS011;29300;43.560;1.294;2022-12-07T06:39:27;13.00;;;8.70;;
43694;SDS011;29300;43.560;1.294;2022-12-07T06:41:54;12.45;;;9.23;;
43694;SDS011;29300;43.560;1.294;2022-12-07T06:44:20;12.25;;;8.52;;
43694;SDS011;29300;43.560;1.294;2022-12-07T06:46:47;12.98;;;8.95;;
43694;SDS011;29300;43.560;1.294;2022-12-07T06:49:13;13.00;;;9.45;;
43694;SDS011;29300;43.560;1.294;2022-12-07T06:51:39;12.93;;;8.55;;
43694;SDS011;29300;43.560;1.294;2022-12-07T06:54:08;13.32;;;9.57;;
43694;SDS011;29300;43.560;1.294;2022-12-07T06:56:38;11.82;;;8.95;;
43694;SDS011;29300;43.560;1.294;2022-12-07T06:59:03;14.38;;;9.00;;
43694;SDS011;29300;43.560;1.294;2022-12-07T07:01:31;12.40;;;8.73;;
43694;SDS011;29300;43.560;1.294;2022-12-07T07:03:57;11.95;;;8.63;;
43694;SDS011;29300;43.560;1.294;2022-12-07T07:06:23;13.57;;;9.15;;
43694;SDS011;29300;43.560;1.294;2022-12-07T07:08:49;12.63;;;9.10;;
43694;SDS011;29300;43.560;1.294;2022-12-07T07:11:15;11.73;;;9.00;;
43694;SDS011;29300;43.560;1.294;2022-12-07T07:13:41;13.23;;;9.15;;
43694;SDS011;29300;43.560;1.294;2022-12-07T07:16:06;15.43;;;9.60;;
43694;SDS011;29300;43.560;1.294;2022-12-07T07:18:32;13.82;;;10.02;;
43694;SDS011;29300;43.560;1.294;2022-12-07T07:20:58;13.55;;;9.30;;
43694;SDS011;29300;43.560;1.294;2022-12-07T07:23:24;11.15;;;8.95;;
43694;SDS011;29300;43.560;1.294;2022-12-07T07:25:50;12.93;;;8.85;;
43694;SDS011;29300;43.560;1.294;2022-12-07T07:28:16;13.68;;;9.18;;
43694;SDS011;29300;43.560;1.294;2022-12-07T07:30:41;12.88;;;9.35;;
43694;SDS011;29300;43.560;1.294;2022-12-07T07:33:08;14.25;;;9.35;;
43694;SDS011;29300;43.560;1.294;2022-12-07T07:35:35;13.88;;;9.63;;
43694;SDS011;29300;43.560;1.294;2022-12-07T07:38:01;14.95;;;10.07;;
43694;SDS011;29300;43.560;1.294;2022-12-07T07:40:27;12.85;;;9.02;;
43694;SDS011;29300;43.560;1.294;2022-12-07T07:42:54;14.80;;;10.52;;
43694;SDS011;29300;43.560;1.294;2022-12-07T07:45:20;16.52;;;9.65;;
43694;SDS011;29300;43.560;1.294;2022-12-07T07:47:47;15.10;;;9.65;;
43694;SDS011;29300;43.560;1.294;2022-12-07T07:50:13;13.13;;;9.60;;
43694;SDS011;29300;43.560;1.294;2022-12-07T07:52:39;13.55;;;10.02;;
43694;SDS011;29300;43.560;1.294;2022-12-07T07:55:05;13.93;;;9.65;;
43694;SDS011;29300;43.560;1.294;2022-12-07T07:57:33;14.32;;;9.95;;
43694;SDS011;29300;43.560;1.294;2022-12-07T08:00:11;16.73;;;9.75;;
43694;SDS011;29300;43.560;1.294;2022-12-07T08:02:38;13.15;;;9.45;;
43694;SDS011;29300;43.560;1.294;2022-12-07T08:05:04;14.05;;;9.60;;
43694;SDS011;29300;43.560;1.294;2022-12-07T08:07:30;12.20;;;9.90;;
43694;SDS011;29300;43.560;1.294;2022-12-07T08:09:56;15.48;;;10.23;;
43694;SDS011;29300;43.560;1.294;2022-12-07T08:12:22;15.35;;;10.10;;
43694;SDS011;29300;43.560;1.294;2022-12-07T08:14:47;15.32;;;10.50;;
43694;SDS011;29300;43.560;1.294;2022-12-07T08:17:13;14.02;;;9.25;;
43694;SDS011;29300;43.560;1.294;2022-12-07T08:19:39;16.80;;;10.32;;
43694;SDS011;29300;43.560;1.294;2022-12-07T08:22:04;16.58;;;11.05;;
43694;SDS011;29300;43.560;1.294;2022-12-07T08:24:32;17.42;;;11.75;;
43694;SDS011;29300;43.560;1.294;2022-12-07T08:26:59;16.70;;;11.40;;
43694;SDS011;29300;43.560;1.294;2022-12-07T08:29:24;18.30;;;12.68;;
43694;SDS011;29300;43.560;1.294;2022-12-07T08:31:50;19.48;;;12.68;;
43694;SDS011;29300;43.560;1.294;2022-12-07T08:34:16;17.92;;;12.65;;
43694;SDS011;29300;43.560;1.294;2022-12-07T08:36:42;17.90;;;12.57;;
43694;SDS011;29300;43.560;1.294;2022-12-07T08:39:07;17.67;;;12.50;;
43694;SDS011;29300;43.560;1.294;2022-12-07T08:41:33;17.77;;;11.45;;
43694;SDS011;29300;43.560;1.294;2022-12-07T08:43:59;19.15;;;12.80;;
43694;SDS011;29300;43.560;1.294;2022-12-07T08:48:57;16.98;;;11.95;;
43694;SDS011;29300;43.560;1.294;2022-12-07T08:51:28;17.60;;;11.55;;
43694;SDS011;29300;43.560;1.294;2022-12-07T08:53:54;20.52;;;12.75;;
43694;SDS011;29300;43.560;1.294;2022-12-07T08:56:22;18.15;;;12.27;;
43694;SDS011;29300;43.560;1.294;2022-12-07T08:58:49;15.13;;;11.02;;
43694;SDS011;29300;43.560;1.294;2022-12-07T09:01:14;18.98;;;13.30;;
43694;SDS011;29300;43.560;1.294;2022-12-07T09:03:40;19.70;;;12.30;;
43694;SDS011;29300;43.560;1.294;2022-12-07T09:06:06;22.30;;;12.82;;
43694;SDS011;29300;43.560;1.294;2022-12-07T09:08:34;18.95;;;12.57;;
43694;SDS011;29300;43.560;1.294;2022-12-07T09:11:04;19.13;;;11.57;;
43694;SDS011;29300;43.560;1.294;2022-12-07T09:13:29;20.40;;;13.00;;
43694;SDS011;29300;43.560;1.294;2022-12-07T09:15:55;18.20;;;12.90;;
43694;SDS011;29300;43.560;1.294;2022-12-07T09:18:21;17.10;;;12.02;;
43694;SDS011;29300;43.560;1.294;2022-12-07T09:20:47;17.52;;;12.25;;
43694;SDS011;29300;43.560;1.294;2022-12-07T09:23:12;18.40;;;12.55;;
43694;SDS011;29300;43.560;1.294;2022-12-07T09:25:38;18.63;;;12.32;;
43694;SDS011;29300;43.560;1.294;2022-12-07T09:28:04;20.30;;;12.38;;
43694;SDS011;29300;43.560;1.294;2022-12-07T09:30:29;20.67;;;12.93;;
43694;SDS011;29300;43.560;1.294;2022-12-07T09:32:56;19.02;;;12.90;;
43694;SDS011;29300;43.560;1.294;2022-12-07T09:35:22;19.20;;;12.77;;
43694;SDS011;29300;43.560;1.294;2022-12-07T09:37:49;16.75;;;12.00;;
43694;SDS011;29300;43.560;1.294;2022-12-07T09:40:14;18.25;;;12.85;;
43694;SDS011;29300;43.560;1.294;2022-12-07T09:42:43;16.27;;;11.30;;
43694;SDS011;29300;43.560;1.294;2022-12-07T09:45:14;16.40;;;12.27;;
43694;SDS011;29300;43.560;1.294;2022-12-07T09:47:44;16.55;;;11.88;;
43694;SDS011;29300;43.560;1.294;2022-12-07T09:50:16;16.65;;;11.75;;
43694;SDS011;29300;43.560;1.294;2022-12-07T09:52:44;16.85;;;11.73;;
43694;SDS011;29300;43.560;1.294;2022-12-07T09:55:13;14.98;;;10.60;;
43694;SDS011;29300;43.560;1.294;2022-12-07T09:57:49;17.13;;;12.20;;
43694;SDS011;29300;43.560;1.294;2022-12-07T10:00:17;17.38;;;11.40;;
43694;SDS011;29300;43.560;1.294;2022-12-07T10:02:50;17.85;;;10.45;;
43694;SDS011;29300;43.560;1.294;2022-12-07T10:05:30;14.20;;;10.38;;
43694;SDS011;29300;43.560;1.294;2022-12-07T10:08:04;11.82;;;9.38;;
43694;SDS011;29300;43.560;1.294;2022-12-07T10:10:31;12.35;;;8.43;;
43694;SDS011;29300;43.560;1.294;2022-12-07T10:13:03;13.18;;;9.85;;
43694;SDS011;29300;43.560;1.294;2022-12-07T10:15:45;11.82;;;8.32;;
43694;SDS011;29300;43.560;1.294;2022-12-07T10:21:04;12.80;;;9.07;;
43694;SDS011;29300;43.560;1.294;2022-12-07T10:23:37;10.40;;;8.18;;
43694;SDS011;29300;43.560;1.294;2022-12-07T10:32:00;11.80;;;8.40;;
43694;SDS011;29300;43.560;1.294;2022-12-07T10:34:52;10.77;;;8.40;;
43694;SDS011;29300;43.560;1.294;2022-12-07T10:37:44;13.32;;;9.40;;
43694;SDS011;29300;43.560;1.294;2022-12-07T10:40:25;12.15;;;8.68;;
43694;SDS011;29300;43.560;1.294;2022-12-07T10:43:00;12.43;;;8.57;;
43694;SDS011;29300;43.560;1.294;2022-12-07T10:48:19;9.93;;;7.45;;
43694;SDS011;29300;43.560;1.294;2022-12-07T10:53:44;10.35;;;7.60;;
43694;SDS011;29300;43.560;1.294;2022-12-07T11:05:09;9.32;;;6.85;;
43694;SDS011;29300;43.560;1.294;2022-12-07T11:07:48;11.38;;;6.90;;
43694;SDS011;29300;43.560;1.294;2022-12-07T11:15:42;11.10;;;8.48;;
43694;SDS011;29300;43.560;1.294;2022-12-07T11:32:12;9.23;;;6.72;;
43694;SDS011;29300;43.560;1.294;2022-12-07T11:37:32;8.43;;;6.32;;
43694;SDS011;29300;43.560;1.294;2022-12-07T11:40:04;7.45;;;5.78;;
43694;SDS011;29300;43.560;1.294;2022-12-07T11:42:51;6.65;;;5.55;;
43694;SDS011;29300;43.560;1.294;2022-12-07T11:45:31;7.07;;;5.57;;
43694;SDS011;29300;43.560;1.294;2022-12-07T11:48:03;8.27;;;5.53;;
43694;SDS011;29300;43.560;1.294;2022-12-07T11:50:52;8.15;;;5.18;;
43694;SDS011;29300;43.560;1.294;2022-12-07T11:53:33;6.57;;;5.05;;
43694;SDS011;29300;43.560;1.294;2022-12-07T11:56:13;8.18;;;5.13;;
43694;SDS011;29300;43.560;1.294;2022-12-07T12:06:38;5.93;;;4.63;;
43694;SDS011;29300;43.560;1.294;2022-12-07T12:17:04;8.90;;;6.07;;
43694;SDS011;29300;43.560;1.294;2022-12-07T12:20:14;7.07;;;5.68;;
43694;SDS011;29300;43.560;1.294;2022-12-07T12:25:28;7.93;;;5.75;;
43694;SDS011;29300;43.560;1.294;2022-12-07T12:27:57;7.18;;;5.38;;
43694;SDS011;29300;43.560;1.294;2022-12-07T12:30:37;6.45;;;4.90;;
43694;SDS011;29300;43.560;1.294;2022-12-07T12:33:05;9.30;;;5.13;;
43694;SDS011;29300;43.560;1.294;2022-12-07T12:35:45;6.88;;;5.07;;
43694;SDS011;29300;43.560;1.294;2022-12-07T12:40:52;6.20;;;4.50;;
43694;SDS011;29300;43.560;1.294;2022-12-07T12:51:48;6.50;;;4.82;;
43694;SDS011;29300;43.560;1.294;2022-12-07T12:59:29;8.48;;;5.93;;
43694;SDS011;29300;43.560;1.294;2022-12-07T13:28:44;10.07;;;6.53;;
43694;SDS011;29300;43.560;1.294;2022-12-07T13:33:45;10.60;;;7.20;;
43694;SDS011;29300;43.560;1.294;2022-12-07T13:36:14;7.93;;;6.53;;
43694;SDS011;29300;43.560;1.294;2022-12-07T13:38:59;8.65;;;6.13;;
43694;SDS011;29300;43.560;1.294;2022-12-07T13:41:35;7.70;;;6.25;;
43694;SDS011;29300;43.560;1.294;2022-12-07T13:49:24;10.60;;;6.25;;
43694;SDS011;29300;43.560;1.294;2022-12-07T13:51:52;8.30;;;6.60;;
43694;SDS011;29300;43.560;1.294;2022-12-07T13:54:19;7.68;;;6.22;;
43694;SDS011;29300;43.560;1.294;2022-12-07T13:56:50;9.38;;;6.68;;
43694;SDS011;29300;43.560;1.294;2022-12-07T13:59:18;8.13;;;6.30;;
43694;SDS011;29300;43.560;1.294;2022-12-07T14:01:47;8.52;;;6.55;;
43694;SDS011;29300;43.560;1.294;2022-12-07T14:06:51;8.25;;;5.90;;
43694;SDS011;29300;43.560;1.294;2022-12-07T14:09:18;8.20;;;5.70;;
43694;SDS011;29300;43.560;1.294;2022-12-07T14:11:47;8.93;;;6.65;;
43694;SDS011;29300;43.560;1.294;2022-12-07T14:14:18;8.57;;;6.25;;
43694;SDS011;29300;43.560;1.294;2022-12-07T14:16:56;8.82;;;5.75;;
43694;SDS011;29300;43.560;1.294;2022-12-07T14:19:50;7.05;;;5.80;;
43694;SDS011;29300;43.560;1.294;2022-12-07T14:22:25;7.78;;;6.15;;
43694;SDS011;29300;43.560;1.294;2022-12-07T14:24:58;8.38;;;6.32;;
43694;SDS011;29300;43.560;1.294;2022-12-07T14:27:29;9.90;;;6.32;;
43694;SDS011;29300;43.560;1.294;2022-12-07T14:29:59;11.27;;;6.72;;
43694;SDS011;29300;43.560;1.294;2022-12-07T14:32:27;8.70;;;6.32;;
43694;SDS011;29300;43.560;1.294;2022-12-07T14:34:58;8.75;;;6.20;;
43694;SDS011;29300;43.560;1.294;2022-12-07T14:37:26;9.23;;;6.55;;
43694;SDS011;29300;43.560;1.294;2022-12-07T14:39:53;7.93;;;6.43;;
43694;SDS011;29300;43.560;1.294;2022-12-07T14:42:19;7.78;;;6.03;;
43694;SDS011;29300;43.560;1.294;2022-12-07T14:44:46;7.45;;;5.97;;
43694;SDS011;29300;43.560;1.294;2022-12-07T14:47:12;7.68;;;5.82;;
43694;SDS011;29300;43.560;1.294;2022-12-07T14:49:38;7.72;;;6.05;;
43694;SDS011;29300;43.560;1.294;2022-12-07T14:52:03;8.80;;;6.00;;
43694;SDS011;29300;43.560;1.294;2022-12-07T14:54:31;8.07;;;5.95;;
43694;SDS011;29300;43.560;1.294;2022-12-07T14:56:58;8.48;;;5.95;;
43694;SDS011;29300;43.560;1.294;2022-12-07T14:59:23;6.68;;;5.53;;
43694;SDS011;29300;43.560;1.294;2022-12-07T15:01:49;7.65;;;5.97;;
43694;SDS011;29300;43.560;1.294;2022-12-07T15:04:15;9.48;;;5.70;;
43694;SDS011;29300;43.560;1.294;2022-12-07T15:06:41;9.30;;;6.13;;
43694;SDS011;29300;43.560;1.294;2022-12-07T15:09:09;7.35;;;5.40;;
43694;SDS011;29300;43.560;1.294;2022-12-07T15:11:36;7.30;;;5.35;;
43694;SDS011;29300;43.560;1.294;2022-12-07T15:14:02;5.95;;;5.22;;
43694;SDS011;29300;43.560;1.294;2022-12-07T15:19:00;7.97;;;5.68;;
43694;SDS011;29300;43.560;1.294;2022-12-07T15:21:25;7.38;;;5.25;;
43694;SDS011;29300;43.560;1.294;2022-12-07T15:23:51;6.90;;;5.13;;
43694;SDS011;29300;43.560;1.294;2022-12-07T15:26:17;8.60;;;5.72;;
43694;SDS011;29300;43.560;1.294;2022-12-07T15:28:43;7.40;;;5.55;;
43694;SDS011;29300;43.560;1.294;2022-12-07T15:31:12;7.90;;;5.35;;
43694;SDS011;29300;43.560;1.294;2022-12-07T15:33:42;7.10;;;5.10;;
43694;SDS011;29300;43.560;1.294;2022-12-07T15:36:09;7.30;;;5.60;;
43694;SDS011;29300;43.560;1.294;2022-12-07T15:38:48;6.68;;;5.88;;
43694;SDS011;29300;43.560;1.294;2022-12-07T15:41:14;6.95;;;5.00;;
43694;SDS011;29300;43.560;1.294;2022-12-07T15:43:40;7.18;;;5.63;;
43694;SDS011;29300;43.560;1.294;2022-12-07T15:46:28;7.07;;;4.70;;
43694;SDS011;29300;43.560;1.294;2022-12-07T15:48:58;6.32;;;5.25;;
43694;SDS011;29300;43.560;1.294;2022-12-07T15:51:25;7.43;;;5.03;;
43694;SDS011;29300;43.560;1.294;2022-12-07T15:53:51;5.95;;;4.57;;
43694;SDS011;29300;43.560;1.294;2022-12-07T15:56:17;7.22;;;5.03;;
43694;SDS011;29300;43.560;1.294;2022-12-07T15:58:43;6.80;;;5.15;;
43694;SDS011;29300;43.560;1.294;2022-12-07T16:01:16;6.78;;;5.07;;
43694;SDS011;29300;43.560;1.294;2022-12-07T16:03:43;6.50;;;5.15;;
43694;SDS011;29300;43.560;1.294;2022-12-07T16:06:09;5.53;;;4.32;;
43694;SDS011;29300;43.560;1.294;2022-12-07T16:08:36;6.00;;;4.45;;
43694;SDS011;29300;43.560;1.294;2022-12-07T16:11:05;5.72;;;4.57;;
43694;SDS011;29300;43.560;1.294;2022-12-07T16:13:32;5.78;;;4.65;;
43694;SDS011;29300;43.560;1.294;2022-12-07T16:15:58;5.28;;;4.47;;
43694;SDS011;29300;43.560;1.294;2022-12-07T16:18:26;6.13;;;4.47;;
43694;SDS011;29300;43.560;1.294;2022-12-07T16:20:52;6.90;;;5.03;;
43694;SDS011;29300;43.560;1.294;2022-12-07T16:23:18;8.95;;;5.95;;
43694;SDS011;29300;43.560;1.294;2022-12-07T16:25:43;7.45;;;5.55;;
43694;SDS011;29300;43.560;1.294;2022-12-07T16:28:09;8.38;;;5.90;;
43694;SDS011;29300;43.560;1.294;2022-12-07T16:30:35;7.43;;;5.63;;
43694;SDS011;29300;43.560;1.294;2022-12-07T16:33:00;8.60;;;5.50;;
43694;SDS011;29300;43.560;1.294;2022-12-07T16:35:26;8.07;;;5.82;;
43694;SDS011;29300;43.560;1.294;2022-12-07T16:37:52;7.22;;;5.47;;
43694;SDS011;29300;43.560;1.294;2022-12-07T16:40:18;9.27;;;6.45;;
43694;SDS011;29300;43.560;1.294;2022-12-07T16:42:43;9.77;;;6.88;;
43694;SDS011;29300;43.560;1.294;2022-12-07T16:45:09;9.02;;;6.47;;
43694;SDS011;29300;43.560;1.294;2022-12-07T16:47:39;11.05;;;6.65;;
43694;SDS011;29300;43.560;1.294;2022-12-07T16:50:05;12.63;;;8.20;;
43694;SDS011;29300;43.560;1.294;2022-12-07T16:52:32;18.88;;;12.02;;
43694;SDS011;29300;43.560;1.294;2022-12-07T16:54:58;24.40;;;13.85;;
43694;SDS011;29300;43.560;1.294;2022-12-07T16:57:24;25.10;;;14.10;;
43694;SDS011;29300;43.560;1.294;2022-12-07T16:59:50;23.20;;;14.90;;
43694;SDS011;29300;43.560;1.294;2022-12-07T17:02:16;24.33;;;14.88;;
43694;SDS011;29300;43.560;1.294;2022-12-07T17:04:43;22.83;;;14.82;;
43694;SDS011;29300;43.560;1.294;2022-12-07T17:07:09;23.80;;;15.10;;
43694;SDS011;29300;43.560;1.294;2022-12-07T17:09:35;25.50;;;15.27;;
43694;SDS011;29300;43.560;1.294;2022-12-07T17:12:01;26.38;;;15.50;;
43694;SDS011;29300;43.560;1.294;2022-12-07T17:14:27;27.70;;;16.48;;
43694;SDS011;29300;43.560;1.294;2022-12-07T17:17:11;27.35;;;16.63;;
43694;SDS011;29300;43.560;1.294;2022-12-07T17:19:37;28.63;;;16.92;;